Terminal Aerodrome Forecast
Issued by NWS

Home | Current Version | Previous Version | Text Only | Print | Product List | Glossary On
Versions: 1 2 3 4 5 6 7 8 9 10 11 12 13 14 15 16 17
000
FTUS46 KMFR 242300 RRA
TAFOTH
TAF
KOTH 242340Z 2500/2524 25010KT P6SM -SHRA SCT015 BKN040
     FM250300 VRB03KT P6SM VCSH SCT015 BKN030
     FM250700 18005KT P6SM -SHRA VCTS OVC015CB
     FM251600 VRB03KT P6SM -SHRA VCTS OVC020CB
     FM252000 30010KT P6SM VCSH BKN020=

USA.gov is the U.S. government's official web portal to all federal, state and local government web resources and services.